Time;durP1;ratioP1;P1;durP2;ratioP2;P2;SDS_P1;SDS_P2;PMS_P1;PMS_P2;Temp;Humidity;BMP_temperature;BMP_pressure;BME280_temperature;BME280_humidity;BME280_pressure;Samples;Min_cycle;Max_cycle;Signal;HPM_P1;HPM_P2
2021/08/24 00:01:51;;;;;;;14.20;7.95;;;;;;;22.60;57.11;99955.00;5046472;28;20262;-74
2021/08/24 00:04:16;;;;;;;16.33;8.43;;;;;;;22.60;56.91;99952.31;5043504;28;20037;-74
2021/08/24 00:06:42;;;;;;;12.55;7.88;;;;;;;22.60;56.38;99954.19;5043597;28;20053;-74
2021/08/24 00:09:07;;;;;;;14.85;8.00;;;;;;;22.71;56.31;99953.34;5042776;28;20225;-74
2021/08/24 00:11:34;;;;;;;13.38;7.50;;;;;;;22.50;56.53;99952.06;5044352;28;20037;-74
2021/08/24 00:14:09;;;;;;;12.82;7.22;;;;;;;22.35;56.42;99940.09;5042632;28;20288;-74
2021/08/24 00:16:35;;;;;;;11.82;7.50;;;;;;;22.48;56.61;99961.47;5041009;28;20188;-74
2021/08/24 00:19:01;;;;;;;11.98;8.20;;;;;;;22.58;56.06;99942.81;5043747;28;20029;-74
2021/08/24 00:21:26;;;;;;;14.90;7.30;;;;;;;;;;5042586;28;20249;-74
2021/08/24 00:23:52;;;;;;;16.25;7.63;;;;;;;22.77;55.82;99951.59;5042914;28;20037;-74
2021/08/24 00:26:17;;;;;;;14.00;7.53;;;;;;;22.83;55.32;99959.59;5042693;28;20104;-74
2021/08/24 00:28:43;;;;;;;14.38;7.72;;;;;;;22.71;55.77;99949.84;5042089;28;20045;-74
2021/08/24 00:31:09;;;;;;;12.50;6.75;;;;;;;22.67;55.62;99949.50;5040069;28;20018;-74
2021/08/24 00:33:34;;;;;;;10.05;7.10;;;;;;;22.69;54.89;99950.06;5039884;28;20029;-74
2021/08/24 00:36:00;;;;;;;12.52;6.90;;;;;;;22.64;55.45;99947.25;5039011;28;20022;-73
2021/08/24 00:38:26;;;;;;;14.10;6.75;;;;;;;22.63;54.45;99938.34;5039377;28;20061;-73
2021/08/24 00:40:56;;;;;;;15.27;6.80;;;;;;;22.43;54.32;99945.16;5039652;28;20033;-74
2021/08/24 00:43:22;;;;;;;11.98;6.88;;;;;;;22.23;55.07;99932.81;5036689;28;20029;-74
2021/08/24 00:45:52;;;;;;;15.45;7.38;;;;;;;22.25;56.04;99940.69;5040454;28;20029;-74
2021/08/24 00:48:22;;;;;;;10.38;6.93;;;;;;;22.20;55.63;99945.97;5038632;28;20033;-73
2021/08/24 00:50:50;;;;;;;9.73;7.05;;;;;;;22.08;55.54;99940.56;5059429;28;20117;-74
2021/08/24 00:53:21;;;;;;;13.60;6.65;;;;;;;22.01;55.88;99929.03;5059719;28;20044;-73
2021/08/24 00:55:47;;;;;;;16.15;6.97;;;;;;;21.99;55.70;99929.25;5058960;28;20116;-74
2021/08/24 00:58:15;;;;;;;15.43;7.43;;;;;;;22.05;55.93;99945.59;5059265;28;20052;-74
2021/08/24 01:00:43;;;;;;;12.20;6.78;;;;;;;22.06;56.35;99947.22;5058628;28;20237;-74
2021/08/24 01:03:21;;;;;;;11.02;7.03;;;;;;;22.08;55.67;99940.56;5060593;28;20074;-73
2021/08/24 01:05:50;;;;;;;10.65;6.88;;;;;;;22.02;56.50;99941.44;5062720;28;20330;-74
2021/08/24 01:08:37;;;;;;;13.02;7.13;;;;;;;22.18;56.25;99940.81;5059626;28;20095;-74
2021/08/24 01:11:28;;;;;;;12.43;6.05;;;;;;;22.06;55.55;99944.53;5058486;28;20278;-73
2021/08/24 01:14:23;;;;;;;11.10;7.15;;;;;;;22.03;55.70;99940.44;5059650;28;20075;-74
2021/08/24 01:17:06;;;;;;;10.43;6.85;;;;;;;21.97;56.20;99920.56;5056009;28;20102;-74
2021/08/24 01:19:35;;;;;;;9.80;6.50;;;;;;;22.11;56.24;99934.69;5056088;28;20315;-74
2021/08/24 01:22:22;;;;;;;11.00;7.10;;;;;;;21.98;56.16;99932.19;5059323;28;20035;-73
2021/08/24 01:25:06;;;;;;;9.50;6.60;;;;;;;21.95;55.95;99938.03;5058264;28;20032;-73
2021/08/24 01:27:41;;;;;;;12.38;6.82;;;;;;;22.01;56.16;99936.28;5049503;28;20096;-74
2021/08/24 01:30:18;;;;;;;11.20;6.50;;;;;;;21.87;55.67;99933.81;5058378;28;20108;-74
2021/08/24 01:33:00;;;;;;;15.07;7.07;;;;;;;21.82;55.99;99928.25;5056698;28;20333;-74
2021/08/24 01:35:57;;;;;;;12.60;7.22;;;;;;;21.81;57.08;99929.31;5055076;28;20021;-74
2021/08/24 01:38:32;;;;;;;11.43;6.95;;;;;;;21.75;57.29;99924.84;5059071;28;20048;-74
2021/08/24 01:41:10;;;;;;;17.38;7.90;;;;;;;21.69;58.52;99923.06;5058206;28;20029;-74
2021/08/24 01:43:54;;;;;;;13.80;8.50;;;;;;;21.58;59.44;99916.59;5058475;28;20082;-74
2021/08/24 01:46:47;;;;;;;18.50;9.75;;;;;;;21.45;60.40;99911.38;5061811;28;20032;-74
2021/08/24 01:49:18;;;;;;;14.23;9.90;;;;;;;21.67;59.76;99906.28;5017887;28;20114;-74
2021/08/24 01:51:51;;;;;;;15.68;9.93;;;;;;;21.84;58.92;99915.34;5056312;28;20037;-73
2021/08/24 01:54:34;;;;;;;13.50;9.07;;;;;;;21.92;58.53;99917.75;5057888;28;20719;-74
2021/08/24 01:57:01;;;;;;;12.98;8.45;;;;;;;21.66;57.16;99902.78;5058542;28;20338;-74
2021/08/24 01:59:36;;;;;;;17.83;8.70;;;;;;;21.51;58.48;99913.16;5057743;28;20041;-74
2021/08/24 02:02:13;;;;;;;13.68;9.13;;;;;;;21.43;58.89;99897.31;5055614;28;20028;-74
2021/08/24 02:04:55;;;;;;;11.80;7.28;;;;;;;21.53;57.29;99900.28;5041322;28;20029;-74
2021/08/24 02:07:23;;;;;;;13.05;8.15;;;;;;;21.17;58.43;99901.16;5055228;28;20021;-74
2021/08/24 02:09:53;;;;;;;12.90;8.82;;;;;;;21.13;59.51;99893.78;5058726;28;20082;-74
2021/08/24 02:12:24;;;;;;;14.77;8.23;;;;;;;21.10;59.26;99884.28;5057482;28;20024;-74
2021/08/24 02:14:50;;;;;;;10.52;7.30;;;;;;;21.21;58.06;99891.59;5057598;28;20043;-73
2021/08/24 02:17:19;;;;;;;9.50;7.07;;;;;;;21.12;57.78;99890.25;5058327;28;20044;-74
2021/08/24 02:20:00;;;;;;;13.10;8.43;;;;;;;21.04;59.06;99882.50;5056115;28;20350;-74
2021/08/24 02:22:31;;;;;;;17.13;7.97;;;;;;;21.15;59.47;99886.28;5057030;28;20037;-73
2021/08/24 02:25:13;;;;;;;11.10;7.93;;;;;;;21.26;59.29;99889.06;5057488;28;20036;-74
2021/08/24 02:27:46;;;;;;;14.73;8.63;;;;;;;21.24;59.54;99885.78;5057504;28;20219;-73
2021/08/24 02:30:12;;;;;;;14.98;8.25;;;;;;;21.27;58.14;99885.31;5054924;28;20103;-74
2021/08/24 02:32:41;;;;;;;12.98;8.23;;;;;;;21.16;58.61;99887.94;5057588;28;20025;-73
2021/08/24 02:35:26;;;;;;;14.48;8.18;;;;;;;21.05;58.44;99889.53;5057353;28;20036;-73
2021/08/24 02:38:02;;;;;;;19.90;9.73;;;;;;;20.84;61.16;99890.00;5052345;28;20272;-74
2021/08/24 02:40:49;;;;;;;16.48;9.07;;;;;;;20.94;61.21;99893.78;5055821;28;20063;-73
2021/08/24 02:43:20;;;;;;;21.65;9.73;;;;;;;21.08;60.96;99891.75;5056859;28;20567;-74
2021/08/24 02:46:01;;;;;;;19.15;10.57;;;;;;;21.10;61.16;99896.91;5057274;28;20040;-74
2021/08/24 02:48:27;;;;;;;14.55;10.48;;;;;;;20.96;62.15;99902.47;5055488;28;20156;-73
2021/08/24 02:50:53;;;;;;;16.60;11.32;;;;;;;20.68;62.77;99892.22;5077835;28;20356;-74
2021/08/24 02:53:21;;;;;;;19.45;12.55;;;;;;;20.66;62.55;99891.59;5076779;28;20032;-74
2021/08/24 02:55:48;;;;;;;22.45;11.27;;;;;;;20.67;62.38;99895.13;5076488;28;20300;-74
2021/08/24 02:58:14;;;;;;;23.98;12.32;;;;;;;20.65;62.04;99894.53;5077728;28;20225;-74
2021/08/24 03:00:40;;;;;;;18.52;11.55;;;;;;;20.73;61.71;99878.91;5077737;28;20032;-74
2021/08/24 03:03:05;;;;;;;21.25;12.35;;;;;;;20.90;61.28;99887.22;5080657;28;20066;-74
2021/08/24 03:05:31;;;;;;;22.45;11.75;;;;;;;20.62;62.01;99884.22;5060883;28;20096;-74
2021/08/24 03:07:57;;;;;;;29.55;13.27;;;;;;;20.40;63.30;99891.91;5077429;28;20064;-73
2021/08/24 03:10:25;;;;;;;24.75;13.85;;;;;;;20.18;64.40;99888.75;5077389;28;20294;-74
2021/08/24 03:13:11;;;;;;;21.63;12.45;;;;;;;20.24;64.66;99892.44;5061079;28;20138;-74
2021/08/24 03:16:23;;;;;;;21.05;13.48;;;;;;;20.36;63.70;99879.91;5076339;28;20272;-74
2021/08/24 03:18:55;;;;;;;22.95;12.73;;;;;;;20.36;64.32;99890.66;4979812;28;20123;-74
2021/08/24 03:21:25;;;;;;;21.17;13.10;;;;;;;20.27;64.86;99882.06;4983735;28;20030;-74
2021/08/24 03:23:52;;;;;;;21.85;13.05;;;;;;;20.56;63.90;99888.63;5040644;28;20055;-74
2021/08/24 03:26:28;;;;;;;16.92;12.00;;;;;;;20.66;63.43;99885.41;5058949;28;20237;-74
2021/08/24 03:28:54;;;;;;;22.70;12.18;;;;;;;20.86;62.91;99887.91;5077967;28;20143;-74
2021/08/24 03:31:21;;;;;;;17.00;11.35;;;;;;;20.87;62.33;99881.47;5076603;28;20040;-74
2021/08/24 03:33:47;;;;;;;21.35;11.70;;;;;;;21.04;61.44;99890.56;5076748;28;20044;-74
2021/08/24 03:36:13;;;;;;;20.83;11.80;;;;;;;21.11;61.23;99885.09;5076842;28;20322;-74
2021/08/24 03:38:39;;;;;;;22.75;11.52;;;;;;;21.11;61.44;99888.63;5076387;28;20210;-74
2021/08/24 03:41:06;;;;;;;20.15;11.88;;;;;;;20.71;62.70;99889.06;5076868;28;20059;-74
2021/08/24 03:43:32;;;;;;;20.35;11.40;;;;;;;20.45;63.75;99883.97;5077022;28;20085;-73
2021/08/24 03:45:57;;;;;;;22.95;12.07;;;;;;;20.41;63.79;99888.16;5076265;28;20253;-74
2021/08/24 03:48:23;;;;;;;19.00;11.95;;;;;;;20.63;63.23;99886.69;5077142;28;20029;-74
2021/08/24 03:50:48;;;;;;;21.58;11.77;;;;;;;20.80;62.68;99886.06;5076954;28;20345;-74
2021/08/24 03:53:14;;;;;;;21.63;11.38;;;;;;;20.73;62.49;99867.31;5076537;28;20051;-74
2021/08/24 03:55:39;;;;;;;18.13;11.30;;;;;;;20.92;62.44;99885.13;5077830;28;20254;-74
2021/08/24 03:58:05;;;;;;;19.20;11.35;;;;;;;20.98;62.00;99881.53;5076364;28;20062;-74
2021/08/24 04:00:30;;;;;;;18.80;11.23;;;;;;;21.07;61.93;99883.91;5076395;28;20033;-74
2021/08/24 04:02:56;;;;;;;19.65;10.93;;;;;;;21.18;61.29;99877.75;5060557;28;20123;-74
2021/08/24 04:05:21;;;;;;;17.38;11.00;;;;;;;21.34;60.93;99877.16;5076350;28;20032;-74
2021/08/24 04:07:47;;;;;;;22.05;11.75;;;;;;;21.32;61.04;99881.94;5081186;28;20047;-74
2021/08/24 04:10:13;;;;;;;22.98;12.43;;;;;;;21.42;60.40;99878.69;5080248;28;20086;-74
2021/08/24 04:12:38;;;;;;;21.85;11.48;;;;;;;21.30;60.80;99890.25;5080124;28;20025;-74
2021/08/24 04:15:06;;;;;;;28.20;11.80;;;;;;;21.23;61.32;99888.69;5081168;28;20095;-74
2021/08/24 04:17:38;;;;;;;20.60;12.20;;;;;;;21.32;60.86;99885.47;5079471;28;20017;-74
2021/08/24 04:20:07;;;;;;;25.05;12.10;;;;;;;21.32;60.63;99890.03;5079826;28;20033;-76
2021/08/24 04:22:33;;;;;;;26.92;12.50;;;;;;;21.40;60.26;99894.25;5080292;28;20040;-76
2021/08/24 04:24:59;;;;;;;29.17;14.57;;;;;;;21.48;59.95;99891.25;5079853;28;20040;-76
2021/08/24 04:27:24;;;;;;;28.83;13.68;;;;;;;21.54;59.44;99890.31;5079743;28;20265;-76
2021/08/24 04:29:50;;;;;;;27.23;12.63;;;;;;;21.55;59.62;99889.28;5081036;28;20036;-76
2021/08/24 04:32:22;;;;;;;27.60;12.90;;;;;;;21.50;59.63;99870.28;5079277;28;20077;-76
2021/08/24 04:34:47;;;;;;;24.30;12.55;;;;;;;21.57;59.65;99888.00;5077164;28;20311;-76
2021/08/24 04:37:13;;;;;;;30.52;13.90;;;;;;;21.46;59.47;99877.19;5079914;28;20040;-76
2021/08/24 04:39:38;;;;;;;26.33;15.25;;;;;;;21.26;60.27;99864.81;5079513;28;20048;-76
2021/08/24 04:42:04;;;;;;;32.72;15.15;;;;;;;21.44;60.05;99887.38;5080436;28;20035;-76
2021/08/24 04:44:29;;;;;;;26.30;12.75;;;;;;;21.38;60.61;99882.91;5079208;28;20344;-74
2021/08/24 04:46:55;;;;;;;23.20;11.73;;;;;;;21.64;59.72;99879.81;5079612;28;20187;-74
2021/08/24 04:49:21;;;;;;;26.27;12.38;;;;;;;21.66;60.13;99891.19;5080136;28;20055;-74
2021/08/24 04:51:46;;;;;;;23.70;11.98;;;;;;;21.72;59.74;99890.25;5079283;28;20047;-74
2021/08/24 04:54:12;;;;;;;27.05;11.98;;;;;;;21.66;59.73;99888.50;5062293;28;20040;-74
2021/08/24 04:56:37;;;;;;;31.83;12.30;;;;;;;21.66;59.98;99886.63;5079916;28;20279;-74
2021/08/24 04:59:03;;;;;;;23.30;11.52;;;;;;;21.80;59.35;99884.53;5079135;28;20269;-74
2021/08/24 05:01:28;;;;;;;22.90;11.93;;;;;;;21.81;59.43;99886.19;5061625;28;20018;-74
2021/08/24 05:03:54;;;;;;;27.17;11.25;;;;;;;22.11;58.31;99871.84;5079058;28;20041;-74
2021/08/24 05:06:19;;;;;;;18.77;10.82;;;;;;;22.38;57.52;99872.19;5079767;28;20051;-74
2021/08/24 05:08:45;;;;;;;22.83;11.70;;;;;;;22.65;56.94;99884.13;5079470;28;20024;-74
2021/08/24 05:11:10;;;;;;;27.20;11.57;;;;;;;22.88;56.34;99889.50;5061100;28;20035;-74
2021/08/24 05:13:36;;;;;;;21.50;12.13;;;;;;;23.12;55.49;99894.88;5080007;28;20052;-74
2021/08/24 05:16:09;;;;;;;29.80;11.50;;;;;;;23.29;54.49;99886.81;5078733;28;20063;-74
2021/08/24 05:18:35;;;;;;;25.45;12.70;;;;;;;23.11;54.27;99869.72;5077666;28;20096;-74
2021/08/24 05:21:06;;;;;;;29.08;16.40;;;;;;;23.41;53.78;99885.69;5080007;28;20099;-74
2021/08/24 05:23:33;;;;;;;24.52;12.77;;;;;;;23.79;53.28;99886.94;5079388;28;20046;-74
2021/08/24 05:25:59;;;;;;;30.40;18.10;;;;;;;24.07;52.17;99881.47;5062234;28;20028;-74
2021/08/24 05:28:24;;;;;;;28.75;15.15;;;;;;;24.14;51.86;99882.13;5079760;28;20032;-74
2021/08/24 05:30:49;;;;;;;28.02;16.38;;;;;;;24.39;51.17;99876.28;5053660;28;20037;-74
2021/08/24 05:33:15;;;;;;;26.40;12.65;;;;;;;24.69;50.45;99880.47;5078441;28;20099;-74
2021/08/24 05:35:40;;;;;;;27.08;11.25;;;;;;;25.01;49.14;99884.19;5080104;28;20029;-74
2021/08/24 05:38:06;;;;;;;22.88;10.52;;;;;;;25.24;48.34;99880.38;5078223;28;20062;-74
2021/08/24 05:40:31;;;;;;;23.52;12.32;;;;;;;25.49;47.87;99871.69;5079890;28;20033;-74
2021/08/24 05:42:57;;;;;;;29.60;12.65;;;;;;;25.71;46.84;99887.91;5078305;28;20043;-74
2021/08/24 05:45:22;;;;;;;18.02;9.80;;;;;;;25.57;46.97;99884.78;5078046;28;20016;-74
2021/08/24 05:47:48;;;;;;;16.63;9.48;;;;;;;25.75;46.66;99889.03;5061318;28;20052;-74
2021/08/24 05:50:13;;;;;;;18.63;9.00;;;;;;;25.85;45.93;99888.31;5077693;28;20215;-74
2021/08/24 05:52:39;;;;;;;20.10;10.50;;;;;;;26.26;45.04;99882.13;5079142;28;20059;-74
2021/08/24 05:55:05;;;;;;;19.58;10.73;;;;;;;26.34;44.95;99897.13;5078052;28;20033;-74
2021/08/24 05:57:31;;;;;;;18.52;10.25;;;;;;;26.37;44.23;99886.56;5077949;28;20059;-75
2021/08/24 05:59:56;;;;;;;19.38;8.65;;;;;;;26.47;44.16;99887.72;5079104;28;20045;-74
2021/08/24 06:02:22;;;;;;;16.27;8.27;;;;;;;26.33;43.56;99881.94;5077763;28;20226;-74
2021/08/24 06:04:47;;;;;;;20.58;9.32;;;;;;;26.74;42.49;99888.41;5079359;28;20206;-74
2021/08/24 06:07:13;;;;;;;15.75;8.57;;;;;;;26.88;42.13;99888.72;5077612;28;20035;-74
2021/08/24 06:09:39;;;;;;;13.85;8.57;;;;;;;26.88;42.38;99886.00;5078219;28;20082;-75
2021/08/24 06:12:05;;;;;;;18.80;9.35;;;;;;;27.04;42.01;99885.81;5078711;28;20028;-75
2021/08/24 06:14:30;;;;;;;19.75;8.77;;;;;;;27.11;41.62;99882.06;5060924;28;20267;-74
2021/08/24 06:16:59;;;;;;;20.83;10.02;;;;;;;27.22;41.80;99868.25;5077417;28;20032;-74
2021/08/24 06:19:26;;;;;;;18.75;9.43;;;;;;;27.55;41.54;99877.00;5077674;28;20293;-74
2021/08/24 06:21:52;;;;;;;16.63;8.90;;;;;;;27.39;41.89;99884.31;5078113;28;20024;-74
2021/08/24 06:24:17;;;;;;;28.23;14.40;;;;;;;27.73;41.20;99868.34;5077307;28;20342;-74
2021/08/24 06:26:43;;;;;;;17.58;9.50;;;;;;;27.96;40.38;99869.69;5077849;28;20024;-75
2021/08/24 06:29:10;;;;;;;18.27;9.98;;;;;;;27.80;40.86;99876.22;5077489;28;20298;-74
2021/08/24 06:31:40;;;;;;;20.90;9.05;;;;;;;28.39;39.86;99876.50;5077122;28;20349;-74
2021/08/24 06:34:08;;;;;;;15.65;8.88;;;;;;;28.36;39.53;99866.16;5077123;28;20028;-75
2021/08/24 06:36:34;;;;;;;17.10;8.38;;;;;;;28.59;39.13;99862.81;5077679;28;20358;-75
2021/08/24 06:38:59;;;;;;;22.15;8.25;;;;;;;28.98;38.25;99856.69;5077266;28;20047;-74
2021/08/24 06:41:25;;;;;;;24.52;12.80;;;;;;;28.92;38.39;99868.69;5074992;28;20218;-75
2021/08/24 06:43:51;;;;;;;17.73;8.43;;;;;;;29.02;37.93;99867.84;5077483;28;20109;-74
2021/08/24 06:46:16;;;;;;;18.02;9.63;;;;;;;28.57;38.69;99875.06;5076992;28;20150;-75
2021/08/24 06:48:42;;;;;;;15.90;9.38;;;;;;;28.59;38.71;99865.53;5077778;28;20060;-74
2021/08/24 06:51:09;;;;;;;20.05;8.35;;;;;;;28.83;38.05;99868.47;5077147;28;20033;-74
2021/08/24 06:53:35;;;;;;;19.75;8.88;;;;;;;28.79;38.19;99867.38;5074568;28;20108;-75
2021/08/24 06:56:04;;;;;;;15.90;8.52;;;;;;;29.21;37.74;99864.22;5077904;28;20040;-74
2021/08/24 06:58:29;;;;;;;13.40;7.65;;;;;;;29.96;36.07;99861.22;5076585;28;20036;-75
2021/08/24 07:00:55;;;;;;;20.30;9.30;;;;;;;30.11;35.26;99852.09;5077405;28;20020;-75
2021/08/24 07:03:20;;;;;;;12.23;8.25;;;;;;;30.22;34.99;99858.31;5062131;28;20036;-75
2021/08/24 07:05:49;;;;;;;14.75;9.73;;;;;;;30.05;34.92;99861.44;5076891;28;20037;-75
2021/08/24 07:08:15;;;;;;;19.33;9.20;;;;;;;29.65;35.90;99860.66;5061045;28;20329;-75
2021/08/24 07:10:41;;;;;;;18.20;7.97;;;;;;;29.74;35.69;99853.50;5076604;28;20088;-75
2021/08/24 07:13:07;;;;;;;15.90;7.82;;;;;;;30.18;35.05;99856.16;5078219;28;20325;-75
2021/08/24 07:15:34;;;;;;;12.43;8.82;;;;;;;30.00;34.49;99840.44;5077131;28;20150;-75
2021/08/24 07:18:00;;;;;;;15.27;7.80;;;;;;;29.85;35.01;99832.38;5076717;28;20040;-75
2021/08/24 07:20:26;;;;;;;17.92;8.45;;;;;;;29.92;35.31;99841.06;5077992;28;20021;-75
2021/08/24 07:22:52;;;;;;;18.48;7.72;;;;;;;30.35;34.87;99842.03;5076510;28;20040;-74
2021/08/24 07:25:22;;;;;;;14.45;8.65;;;;;;;30.09;34.74;99835.19;5077038;28;20445;-75
2021/08/24 07:27:48;;;;;;;12.05;7.28;;;;;;;30.31;34.50;99843.72;5059449;28;20551;-75
2021/08/24 07:30:15;;;;;;;14.40;7.13;;;;;;;30.91;33.75;99846.84;5076381;28;20039;-75
2021/08/24 07:32:40;;;;;;;17.52;8.27;;;;;;;31.12;33.33;99840.00;5058944;28;20249;-75
2021/08/24 07:35:07;;;;;;;12.50;7.82;;;;;;;31.27;32.34;99835.47;5077660;28;20028;-75
2021/08/24 07:37:33;;;;;;;11.43;6.80;;;;;;;31.72;31.76;99839.41;5076073;28;20046;-75
2021/08/24 07:39:58;;;;;;;16.60;6.70;;;;;;;32.18;31.12;99838.59;5080714;28;20036;-75
2021/08/24 07:42:24;;;;;;;11.77;7.93;;;;;;;32.41;30.50;99823.16;5082648;28;20032;-75
2021/08/24 07:44:50;;;;;;;9.85;7.10;;;;;;;32.17;31.01;99823.28;5054629;28;20093;-75
2021/08/24 07:47:15;;;;;;;10.75;7.35;;;;;;;32.04;31.36;99833.91;5080597;28;20032;-75
2021/08/24 07:49:44;;;;;;;10.75;7.28;;;;;;;32.53;30.57;99831.69;5081064;28;20067;-75
2021/08/24 07:52:10;;;;;;;14.48;7.45;;;;;;;32.27;31.16;99823.97;5080140;28;20024;-75
2021/08/24 07:54:36;;;;;;;11.38;6.70;;;;;;;32.10;31.15;99820.13;5081572;28;20218;-75
2021/08/24 07:57:02;;;;;;;11.68;7.80;;;;;;;31.61;31.56;99811.38;5080158;28;20043;-75
2021/08/24 07:59:27;;;;;;;11.00;6.78;;;;;;;31.43;32.06;99812.22;5080352;28;20036;-75
2021/08/24 08:01:54;;;;;;;10.43;7.13;;;;;;;32.00;31.24;99805.50;5081151;28;20066;-75
2021/08/24 08:04:24;;;;;;;18.70;8.18;;;;;;;32.44;30.38;99809.66;5080159;28;20029;-75
2021/08/24 08:06:50;;;;;;;12.32;6.78;;;;;;;32.80;30.00;99817.97;5080269;28;20093;-75
2021/08/24 08:09:15;;;;;;;8.90;6.20;;;;;;;32.75;29.64;99815.31;5080482;28;20036;-75
2021/08/24 08:11:42;;;;;;;8.98;5.50;;;;;;;32.83;28.39;99819.28;5079945;28;20032;-75
2021/08/24 08:14:08;;;;;;;10.32;5.57;;;;;;;32.91;28.58;99813.88;5080588;28;20052;-75
2021/08/24 08:16:36;;;;;;;13.50;7.35;;;;;;;32.70;29.35;99812.66;5080343;28;20032;-75
2021/08/24 08:19:02;;;;;;;11.13;7.20;;;;;;;32.90;29.54;99811.44;5079712;28;20028;-75
2021/08/24 08:21:29;;;;;;;11.88;5.50;;;;;;;32.89;29.21;99801.59;5080987;28;20024;-75
2021/08/24 08:23:55;;;;;;;10.52;5.78;;;;;;;32.93;28.41;99813.56;5063329;28;20033;-75
2021/08/24 08:26:20;;;;;;;6.00;4.82;;;;;;;33.16;28.18;99815.22;5080195;28;20035;-75
2021/08/24 08:28:48;;;;;;;9.68;5.35;;;;;;;33.06;28.49;99798.19;5080092;28;20032;-75
2021/08/24 08:31:14;;;;;;;6.93;4.82;;;;;;;32.65;28.43;99807.28;5079227;28;20035;-75
2021/08/24 08:33:40;;;;;;;8.85;4.72;;;;;;;32.99;28.35;99793.94;5064039;28;20036;-75
2021/08/24 08:36:05;;;;;;;7.88;5.57;;;;;;;32.68;27.82;99801.19;5080455;28;20233;-75
2021/08/24 08:38:31;;;;;;;7.68;5.00;;;;;;;32.80;27.29;99801.50;5079533;28;20322;-75
2021/08/24 08:41:08;;;;;;;8.60;5.30;;;;;;;32.69;28.41;99795.41;5080639;28;20309;-75
2021/08/24 08:43:43;;;;;;;6.63;4.93;;;;;;;32.75;28.04;99793.38;5080542;28;20249;-75
2021/08/24 08:46:26;;;;;;;9.60;5.78;;;;;;;33.22;27.55;99783.00;5079085;28;20041;-75
2021/08/24 08:49:25;;;;;;;8.07;5.03;;;;;;;32.36;28.10;99785.69;5079675;28;20090;-75
2021/08/24 08:52:03;;;;;;;8.32;4.72;;;;;;;32.03;28.64;99790.41;5056518;28;20330;-75
2021/08/24 08:54:53;;;;;;;6.65;4.45;;;;;;;31.86;28.52;99779.22;5078757;28;20329;-74
2021/08/24 08:57:25;;;;;;;7.28;4.75;;;;;;;31.64;27.84;99783.41;5056554;28;20020;-75
2021/08/24 09:00:01;;;;;;;7.43;5.07;;;;;;;31.91;27.91;99773.66;5053317;28;20318;-74
2021/08/24 09:02:59;;;;;;;10.43;4.72;;;;;;;32.26;28.05;99780.44;5079622;28;20056;-75
2021/08/24 09:05:26;;;;;;;8.07;4.97;;;;;;;32.36;28.48;99772.81;5040856;28;20212;-75
2021/08/24 09:07:55;;;;;;;6.93;4.80;;;;;;;32.68;28.25;99766.38;5080326;28;20356;-75
2021/08/24 09:10:39;;;;;;;9.68;4.60;;;;;;;32.95;25.97;99771.00;5079006;28;20079;-75
2021/08/24 09:13:34;;;;;;;10.68;4.30;;;;;;;32.19;25.90;99764.34;5079794;28;20033;-74
2021/08/24 09:16:38;;;;;;;6.05;4.53;;;;;;;31.80;26.82;99759.34;5071215;28;20276;-75
2021/08/24 09:19:13;;;;;;;6.40;4.38;;;;;;;32.08;26.30;99760.97;5078098;28;20053;-74
2021/08/24 09:21:41;;;;;;;7.65;4.53;;;;;;;32.10;26.74;99760.69;5078862;28;20043;-74
2021/08/24 09:24:12;;;;;;;10.13;4.50;;;;;;;32.07;25.62;99758.56;5059518;28;20361;-75
2021/08/24 09:27:02;;;;;;;7.70;3.67;;;;;;;31.56;24.82;99756.72;5079670;28;20032;-74
2021/08/24 09:29:33;;;;;;;6.70;3.97;;;;;;;31.79;25.90;99748.69;5075706;28;20063;-75
2021/08/24 09:32:09;;;;;;;7.05;4.45;;;;;;;31.61;24.83;99742.13;5079123;28;20024;-74
2021/08/24 09:34:40;;;;;;;7.07;4.50;;;;;;;31.79;25.93;99740.47;5070990;28;20039;-75
2021/08/24 09:37:06;;;;;;;7.32;4.57;;;;;;;31.69;26.71;99736.81;5078473;28;20024;-74
2021/08/24 09:39:51;;;;;;;8.88;4.57;;;;;;;31.48;26.62;99729.22;5064036;28;20238;-75
2021/08/24 09:42:40;;;;;;;7.88;4.70;;;;;;;31.82;26.87;99735.19;5075893;28;20100;-75
2021/08/24 09:45:20;;;;;;;7.30;3.95;;;;;;;32.10;25.53;99729.75;5076460;28;20028;-75
2021/08/24 09:48:08;;;;;;;6.40;3.90;;;;;;;32.32;25.03;99718.94;5075927;28;20036;-75
2021/08/24 09:50:37;;;;;;;7.75;4.05;;;;;;;31.77;25.90;99729.00;5070903;28;20393;-75
2021/08/24 09:53:05;;;;;;;6.05;4.47;;;;;;;31.86;25.74;99724.47;5079637;28;20028;-75
2021/08/24 09:55:37;;;;;;;6.43;3.83;;;;;;;32.08;26.44;99719.09;5061529;28;20314;-75
2021/08/24 09:58:05;;;;;;;7.53;3.90;;;;;;;32.25;23.77;99705.63;5060175;28;20318;-75
2021/08/24 10:01:03;;;;;;;6.30;3.17;;;;;;;31.82;20.64;99720.69;5075629;28;20043;-75
2021/08/24 10:03:40;;;;;;;5.20;2.75;;;;;;;31.33;21.03;99706.50;5076318;28;20043;-75
2021/08/24 10:06:31;;;;;;;4.68;3.67;;;;;;;30.96;20.55;99699.13;5077789;28;20032;-75
2021/08/24 10:09:23;;;;;;;3.85;2.90;;;;;;;30.59;19.49;99712.81;5077539;28;20321;-75
2021/08/24 10:11:49;;;;;;;4.70;2.65;;;;;;;30.63;19.37;99711.94;5078339;28;20098;-75
2021/08/24 10:14:27;;;;;;;4.40;2.47;;;;;;;30.86;18.65;99696.56;5060659;28;20103;-74
2021/08/24 10:16:57;;;;;;;3.30;2.40;;;;;;;30.42;18.49;99705.09;5077629;28;20330;-74
2021/08/24 10:19:35;;;;;;;3.78;2.47;;;;;;;30.42;17.54;99708.63;5057055;28;20029;-75
2021/08/24 10:22:08;;;;;;;3.80;1.88;;;;;;;30.60;17.12;99708.97;5074616;28;20036;-74
2021/08/24 10:25:12;;;;;;;2.55;2.22;;;;;;;30.41;17.47;99701.53;5078460;28;20044;-74
2021/08/24 10:27:42;;;;;;;3.38;2.70;;;;;;;30.52;19.10;99709.59;5076641;28;20117;-75
2021/08/24 10:30:32;;;;;;;3.35;2.70;;;;;;;30.74;18.50;99688.00;5074491;28;20035;-74
2021/08/24 10:32:58;;;;;;;4.20;2.75;;;;;;;30.71;18.84;99680.38;5058486;28;20032;-75
2021/08/24 10:35:27;;;;;;;4.15;3.10;;;;;;;30.55;19.54;99692.63;5078472;28;20256;-74
2021/08/24 10:37:54;;;;;;;4.65;3.22;;;;;;;30.48;21.80;99698.44;5077288;28;20040;-74
2021/08/24 10:40:24;;;;;;;3.95;3.40;;;;;;;30.56;21.28;99694.25;5060188;28;20029;-75
2021/08/24 10:43:03;;;;;;;4.18;2.83;;;;;;;30.46;21.82;99696.00;5080000;28;20203;-75
2021/08/24 10:45:34;;;;;;;4.68;3.40;;;;;;;30.62;21.69;99693.09;5081049;28;20032;-75
2021/08/24 10:48:03;;;;;;;4.18;2.92;;;;;;;30.81;21.48;99683.78;5077893;28;20261;-75
2021/08/24 10:50:41;;;;;;;5.53;2.92;;;;;;;31.13;21.12;99673.97;5060549;28;20055;-75
2021/08/24 10:53:16;;;;;;;5.25;3.78;;;;;;;31.36;22.73;99669.53;5076956;28;20047;-75
2021/08/24 10:55:48;;;;;;;3.90;3.05;;;;;;;31.27;19.81;99665.84;5060858;28;20028;-75
2021/08/24 10:58:18;;;;;;;6.97;3.17;;;;;;;30.97;21.12;99656.19;5074355;28;20063;-75
2021/08/24 11:01:04;;;;;;;5.63;3.13;;;;;;;30.94;21.08;99663.06;5077660;28;20309;-75
2021/08/24 11:03:50;;;;;;;4.05;3.28;;;;;;;31.09;21.00;99662.81;5077490;28;20280;-74
2021/08/24 11:06:34;;;;;;;4.85;2.95;;;;;;;30.95;19.58;99656.50;5057474;28;20029;-75
2021/08/24 11:09:14;;;;;;;5.95;3.05;;;;;;;30.92;20.61;99656.28;5074366;28;20033;-75
2021/08/24 11:11:54;;;;;;;7.32;3.10;;;;;;;30.71;21.90;99658.53;5074317;28;20028;-74
2021/08/24 11:14:34;;;;;;;5.70;3.40;;;;;;;30.62;22.34;99658.38;5074384;28;20024;-75
2021/08/24 11:17:15;;;;;;;5.95;3.25;;;;;;;30.78;21.96;99650.75;5072595;28;20025;-75
2021/08/24 11:19:59;;;;;;;6.05;3.45;;;;;;;30.94;22.45;99643.94;5077625;28;20042;-75
2021/08/24 11:22:24;;;;;;;;;;;;;;;30.87;22.41;99639.94;5074213;28;20105;-75
2021/08/24 11:24:57;;;;;;;4.22;3.25;;;;;;;31.00;22.61;99633.72;5077727;28;19917;-75
2021/08/24 11:27:34;;;;;;;10.03;4.00;;;;;;;31.12;22.71;99634.06;5076655;28;20020;-74
2021/08/24 11:30:13;;;;;;;5.60;3.00;;;;;;;31.28;21.66;99634.66;5076992;28;20470;-74
2021/08/24 11:32:43;;;;;;;5.22;3.03;;;;;;;31.24;21.59;99637.19;5057601;28;20043;-74
2021/08/24 11:35:18;;;;;;;7.38;3.50;;;;;;;30.98;21.42;99627.72;5074910;28;20044;-75
2021/08/24 11:37:59;;;;;;;4.53;3.42;;;;;;;31.02;20.36;99626.84;5078313;28;20048;-74
2021/08/24 11:40:36;;;;;;;4.68;3.28;;;;;;;31.17;21.53;99620.31;5077672;28;20048;-75
2021/08/24 11:43:05;;;;;;;5.97;3.45;;;;;;;31.54;20.71;99613.91;5077240;28;20253;-75
2021/08/24 11:45:50;;;;;;;6.85;3.20;;;;;;;31.46;20.77;99611.06;5076212;28;20036;-75